createdAt,value
2017-12-20T00:01:03.141Z,102192.39
2017-12-20T00:03:30.591Z,102202.76
2017-12-20T00:05:58.045Z,102191.50
2017-12-20T00:08:25.521Z,102193.38
2017-12-20T00:10:52.984Z,102192.42
2017-12-20T00:13:20.478Z,102194.56
2017-12-20T00:15:47.947Z,102195.97
2017-12-20T00:18:15.428Z,102195.91
2017-12-20T00:20:42.898Z,102194.70
2017-12-20T00:23:10.377Z,102186.27
2017-12-20T00:25:37.827Z,102181.47
2017-12-20T00:28:05.309Z,102169.64
2017-12-20T00:30:32.791Z,102162.97
2017-12-20T00:33:00.257Z,102156.47
2017-12-20T00:35:27.720Z,102152.19
2017-12-20T00:37:55.198Z,102147.78
2017-12-20T00:40:22.648Z,102151.33
2017-12-20T00:42:50.117Z,102149.59
2017-12-20T00:45:17.624Z,102153.08
2017-12-20T00:47:45.094Z,102154.42
2017-12-20T00:50:12.570Z,102169.40
2017-12-20T00:52:40.035Z,102160.60
2017-12-20T00:55:07.471Z,102168.94
2017-12-20T00:57:34.915Z,102173.72
2017-12-20T01:00:02.414Z,102163.59
2017-12-20T01:02:29.862Z,102163.13
2017-12-20T01:04:57.335Z,102164.91
2017-12-20T01:07:24.788Z,102166.29
2017-12-20T01:09:52.274Z,102170.72
2017-12-20T01:12:19.734Z,102171.67
2017-12-20T01:14:47.224Z,102170.66
2017-12-20T01:17:14.673Z,102168.02
2017-12-20T01:19:42.156Z,102176.04
2017-12-20T01:22:09.611Z,102175.12
2017-12-20T01:24:37.088Z,102176.77
2017-12-20T01:27:04.544Z,102174.94
2017-12-20T01:29:32.048Z,102170.67
2017-12-20T01:31:59.502Z,102157.80
2017-12-20T01:34:26.951Z,102166.14
2017-12-20T01:36:54.484Z,102166.05
2017-12-20T01:39:21.932Z,102168.70
2017-12-20T01:41:49.423Z,102172.34
2017-12-20T01:44:17.725Z,102165.59
2017-12-20T01:46:45.204Z,102168.63
2017-12-20T01:49:12.671Z,102178.53
2017-12-20T01:51:40.143Z,102177.17
2017-12-20T01:54:07.605Z,102173.80
2017-12-20T01:56:35.078Z,102170.34
2017-12-20T01:59:02.548Z,102168.59
2017-12-20T02:01:30.021Z,102158.09
2017-12-20T02:03:57.487Z,102165.14
2017-12-20T02:06:24.968Z,102152.86
2017-12-20T02:08:52.420Z,102146.75
2017-12-20T02:11:19.872Z,102136.14
2017-12-20T02:13:47.338Z,102129.44
2017-12-20T02:16:14.787Z,102124.16
2017-12-20T02:18:42.251Z,102127.61
2017-12-20T02:21:09.760Z,102124.22
2017-12-20T02:23:37.224Z,102123.36
2017-12-20T02:26:04.672Z,102116.61
2017-12-20T02:28:32.140Z,102116.43
2017-12-20T02:30:59.694Z,102113.75
2017-12-20T02:33:29.940Z,102112.86
2017-12-20T02:35:57.400Z,102118.80
2017-12-20T02:38:36.915Z,102110.63
2017-12-20T02:41:08.952Z,102113.45
2017-12-20T02:43:37.248Z,102126.47
2017-12-20T02:46:04.708Z,102119.58
2017-12-20T02:48:32.171Z,102119.48
2017-12-20T02:50:59.625Z,102114.55
2017-12-20T02:53:27.070Z,102113.11
2017-12-20T02:55:54.541Z,102116.91
2017-12-20T02:58:21.997Z,102113.77
2017-12-20T03:00:49.463Z,102106.97
2017-12-20T03:03:17.003Z,102091.20
2017-12-20T03:05:44.473Z,102082.39
2017-12-20T03:08:12.869Z,102087.02
2017-12-20T03:10:40.336Z,102094.44
2017-12-20T03:13:07.788Z,102101.86
2017-12-20T03:15:35.260Z,102095.07
2017-12-20T03:18:02.777Z,102091.61
2017-12-20T03:20:30.279Z,102097.62
2017-12-20T03:22:57.724Z,102107.17
2017-12-20T03:25:25.171Z,102102.70
2017-12-20T03:27:52.648Z,102104.31
2017-12-20T03:30:20.096Z,102096.06
2017-12-20T03:32:47.576Z,102100.94
2017-12-20T03:35:15.024Z,102095.33
2017-12-20T03:37:42.516Z,102095.54
2017-12-20T03:40:09.955Z,102102.86
2017-12-20T03:42:37.419Z,102106.91
2017-12-20T03:45:04.885Z,102100.45
2017-12-20T03:47:32.343Z,102095.53
2017-12-20T03:49:59.788Z,102095.13
2017-12-20T03:52:27.313Z,102099.23
2017-12-20T03:54:54.773Z,102100.06
2017-12-20T03:57:22.286Z,102106.48
2017-12-20T03:59:49.775Z,102103.08
2017-12-20T04:02:17.285Z,102102.23
2017-12-20T04:04:44.728Z,102103.45
2017-12-20T04:07:12.184Z,102104.97
2017-12-20T04:09:39.716Z,102116.02
2017-12-20T04:12:07.219Z,102121.62
2017-12-20T04:14:34.681Z,102111.14
2017-12-20T04:17:02.160Z,102107.20
2017-12-20T04:19:29.624Z,102106.73
2017-12-20T04:21:57.079Z,102107.19
2017-12-20T04:24:24.556Z,102105.02
2017-12-20T04:26:52.011Z,102094.95
2017-12-20T04:29:19.470Z,102087.84
2017-12-20T04:31:46.919Z,102089.09
2017-12-20T04:34:14.429Z,102084.73
2017-12-20T04:36:41.886Z,102090.00
2017-12-20T04:39:09.339Z,102094.05
2017-12-20T04:41:36.811Z,102094.89
2017-12-20T04:44:04.259Z,102098.36
2017-12-20T04:46:31.724Z,102092.53
2017-12-20T04:48:59.172Z,102099.11
2017-12-20T04:51:26.636Z,102097.57
2017-12-20T04:53:54.088Z,102096.64
2017-12-20T04:56:21.563Z,102094.58
2017-12-20T04:58:49.076Z,102097.52
2017-12-20T05:01:16.555Z,102089.92
2017-12-20T05:03:44.051Z,102090.48
2017-12-20T05:06:11.561Z,102091.81
2017-12-20T05:08:39.003Z,102090.22
2017-12-20T05:11:06.447Z,102088.52
2017-12-20T05:13:33.916Z,102097.71
2017-12-20T05:16:01.386Z,102102.68
2017-12-20T05:18:28.953Z,102101.45
2017-12-20T05:20:56.405Z,102100.05
2017-12-20T05:23:23.967Z,102098.28
2017-12-20T05:25:51.432Z,102100.34
2017-12-20T05:28:18.904Z,102098.34
2017-12-20T05:30:46.404Z,102097.47
2017-12-20T05:33:13.896Z,102095.66
2017-12-20T05:35:41.351Z,102093.55
2017-12-20T05:38:08.815Z,102091.34
2017-12-20T05:40:36.263Z,102094.03
2017-12-20T05:43:03.793Z,102094.95
2017-12-20T05:45:31.243Z,102092.05
2017-12-20T05:47:58.692Z,102094.05
2017-12-20T05:50:26.164Z,102090.06
2017-12-20T05:52:53.640Z,102087.36
2017-12-20T05:55:21.135Z,102095.30
2017-12-20T05:57:48.605Z,102092.68
2017-12-20T06:00:16.079Z,102103.62
2017-12-20T06:02:43.540Z,102107.62
2017-12-20T06:05:11.011Z,102104.09
2017-12-20T06:07:38.488Z,102109.25
2017-12-20T06:10:06.001Z,102116.94
2017-12-20T06:12:33.456Z,102122.30
2017-12-20T06:15:00.938Z,102119.95
2017-12-20T06:17:28.516Z,102123.08
2017-12-20T06:19:56.012Z,102122.19
2017-12-20T06:22:23.467Z,102124.48
2017-12-20T06:24:50.912Z,102133.91
2017-12-20T06:27:18.397Z,102135.56
2017-12-20T06:29:45.846Z,102137.43
2017-12-20T06:32:13.330Z,102140.23
2017-12-20T06:34:40.776Z,102137.22
2017-12-20T06:37:08.252Z,102135.78
2017-12-20T06:39:35.690Z,102127.94
2017-12-20T06:42:03.167Z,102135.04
2017-12-20T06:44:30.635Z,102137.69
2017-12-20T06:46:58.109Z,102127.66
2017-12-20T06:49:25.606Z,102128.92
2017-12-20T06:51:53.214Z,102131.12
2017-12-20T06:54:20.670Z,102138.47
2017-12-20T06:56:48.155Z,102133.16
2017-12-20T06:59:15.599Z,102131.53
2017-12-20T07:01:43.083Z,102132.72
2017-12-20T07:04:10.542Z,102127.94
2017-12-20T07:06:37.992Z,102126.29
2017-12-20T07:09:05.493Z,102130.20
2017-12-20T07:11:32.945Z,102124.86
2017-12-20T07:14:00.422Z,102127.26
2017-12-20T07:16:27.880Z,102130.36
2017-12-20T07:18:55.356Z,102130.05
2017-12-20T07:21:22.803Z,102136.52
2017-12-20T07:23:50.292Z,102137.77
2017-12-20T07:26:17.740Z,102138.28
2017-12-20T07:28:45.217Z,102136.48
2017-12-20T07:31:12.670Z,102140.91
2017-12-20T07:33:40.147Z,102144.17
2017-12-20T07:36:07.616Z,102146.33
2017-12-20T07:38:35.072Z,102142.71
2017-12-20T07:41:02.537Z,102143.97
2017-12-20T07:43:29.987Z,102144.55
2017-12-20T07:45:57.461Z,102141.42
2017-12-20T07:48:24.913Z,102135.28
2017-12-20T07:50:52.427Z,102143.58
2017-12-20T07:53:19.877Z,102147.64
2017-12-20T07:55:47.448Z,102146.68
2017-12-20T07:58:14.900Z,102153.45
2017-12-20T08:00:42.381Z,102160.56
2017-12-20T08:03:09.824Z,102161.87
2017-12-20T08:05:37.307Z,102158.98
2017-12-20T08:08:04.761Z,102157.66
2017-12-20T08:10:32.236Z,102152.53
2017-12-20T08:12:59.676Z,102159.56
2017-12-20T08:15:27.144Z,102161.91
2017-12-20T08:17:54.596Z,102166.36
2017-12-20T08:20:22.068Z,102164.93
2017-12-20T08:22:49.614Z,102171.08
2017-12-20T08:25:17.083Z,102163.20
2017-12-20T08:27:44.543Z,102159.33
2017-12-20T08:30:12.038Z,102165.98
2017-12-20T08:32:39.523Z,102174.72
2017-12-20T08:35:06.972Z,102181.69
2017-12-20T08:37:34.445Z,102178.34
2017-12-20T08:40:01.902Z,102184.07
2017-12-20T08:42:29.424Z,102186.99
2017-12-20T08:44:56.855Z,102191.48
2017-12-20T08:47:24.337Z,102200.47
2017-12-20T08:49:51.812Z,102194.51
2017-12-20T08:52:19.305Z,102189.70
2017-12-20T08:54:46.761Z,102198.48
2017-12-20T08:57:14.241Z,102199.87
2017-12-20T08:59:41.690Z,102199.77
2017-12-20T09:02:12.201Z,102201.66
2017-12-20T09:04:40.890Z,102207.62
2017-12-20T09:07:09.242Z,102207.11
2017-12-20T09:09:37.676Z,102206.50
2017-12-20T09:12:06.965Z,102207.58
2017-12-20T09:14:35.019Z,102214.02
2017-12-20T09:17:03.497Z,102218.38
2017-12-20T09:19:31.607Z,102218.20
2017-12-20T09:22:00.283Z,102217.70
2017-12-20T09:24:28.670Z,102212.80
2017-12-20T09:26:57.016Z,102214.78
2017-12-20T09:29:27.171Z,102218.73
2017-12-20T09:31:55.705Z,102212.80
2017-12-20T09:34:24.303Z,102212.59
2017-12-20T09:36:52.584Z,102210.80
2017-12-20T09:39:21.890Z,102217.06
2017-12-20T09:41:50.452Z,102225.27
2017-12-20T09:44:19.795Z,102215.86
2017-12-20T09:46:48.151Z,102220.11
2017-12-20T09:49:16.892Z,102221.34
2017-12-20T09:51:45.335Z,102218.02
2017-12-20T09:54:13.488Z,102223.18
2017-12-20T09:56:43.108Z,102218.45
2017-12-20T09:59:13.180Z,102215.88
2017-12-20T10:01:41.540Z,102220.91
2017-12-20T10:04:10.523Z,102225.67
2017-12-20T10:06:39.065Z,102223.55
2017-12-20T10:09:07.897Z,102220.59
2017-12-20T10:11:36.080Z,102222.05
2017-12-20T10:14:05.860Z,102225.05
2017-12-20T10:16:33.367Z,102225.02
2017-12-20T10:19:00.839Z,102229.81
2017-12-20T10:21:28.357Z,102224.16
2017-12-20T10:23:55.776Z,102216.35
2017-12-20T10:26:23.247Z,102212.45
2017-12-20T10:28:50.753Z,102209.19
2017-12-20T10:31:18.231Z,102214.02
2017-12-20T10:33:45.770Z,102219.28
2017-12-20T10:36:13.278Z,102220.59
2017-12-20T10:38:40.748Z,102216.72
2017-12-20T10:41:08.223Z,102211.36
2017-12-20T10:43:35.676Z,102213.16
2017-12-20T10:46:03.145Z,102218.10
2017-12-20T10:48:30.604Z,102217.23
2017-12-20T10:50:58.183Z,102220.19
2017-12-20T10:53:25.644Z,102211.80
2017-12-20T10:55:53.668Z,102205.66
2017-12-20T10:58:21.135Z,102201.42
2017-12-20T11:00:48.596Z,102192.66
2017-12-20T11:03:16.093Z,102192.97
2017-12-20T11:05:43.547Z,102197.86
2017-12-20T11:08:11.026Z,102204.34
2017-12-20T11:10:38.476Z,102192.92
2017-12-20T11:13:05.957Z,102193.39
2017-12-20T11:15:33.457Z,102194.12
2017-12-20T11:18:00.987Z,102184.09
2017-12-20T11:20:28.439Z,102188.26
2017-12-20T11:22:55.912Z,102181.66
2017-12-20T11:25:23.382Z,102185.25
2017-12-20T11:27:50.851Z,102189.34
2017-12-20T11:30:18.309Z,102186.31
2017-12-20T11:32:45.859Z,102179.80
2017-12-20T11:35:13.403Z,102184.20
2017-12-20T11:37:40.869Z,102189.78
2017-12-20T11:40:08.344Z,102188.30
2017-12-20T11:42:35.787Z,102192.30
2017-12-20T11:45:03.284Z,102189.94
2017-12-20T11:47:30.780Z,102186.92
2017-12-20T11:49:58.258Z,102185.27
2017-12-20T11:52:25.755Z,102184.34
2017-12-20T11:54:53.231Z,102187.03
2017-12-20T11:57:20.685Z,102185.66
2017-12-20T11:59:48.154Z,102185.59
2017-12-20T12:02:15.650Z,102182.63
2017-12-20T12:04:43.141Z,102179.13
2017-12-20T12:07:10.599Z,102173.39
2017-12-20T12:09:38.075Z,102180.46
2017-12-20T12:12:05.527Z,102178.70
2017-12-20T12:14:32.988Z,102171.20
2017-12-20T12:17:00.441Z,102172.09
2017-12-20T12:19:27.914Z,102169.48
2017-12-20T12:21:55.369Z,102164.66
2017-12-20T12:24:22.819Z,102163.80
2017-12-20T12:26:50.393Z,102158.19
2017-12-20T12:29:17.845Z,102163.94
2017-12-20T12:31:45.307Z,102162.67
2017-12-20T12:34:12.763Z,102158.87
2017-12-20T12:36:40.245Z,102161.77
2017-12-20T12:39:07.708Z,102157.66
2017-12-20T12:41:35.178Z,102158.35
2017-12-20T12:44:02.623Z,102149.86
2017-12-20T12:46:30.147Z,102156.92
2017-12-20T12:48:57.603Z,102147.52
2017-12-20T12:51:25.077Z,102149.72
2017-12-20T12:53:52.526Z,102150.73
2017-12-20T12:56:20.011Z,102152.53
2017-12-20T12:58:47.463Z,102154.37
2017-12-20T13:01:14.941Z,102158.37
2017-12-20T13:03:42.445Z,102155.70
2017-12-20T13:06:09.928Z,102158.82
2017-12-20T13:08:37.426Z,102158.48
2017-12-20T13:11:04.895Z,102150.19
2017-12-20T13:13:32.360Z,102168.59
2017-12-20T13:15:59.831Z,102165.96
2017-12-20T13:18:27.350Z,102165.80
2017-12-20T13:20:54.802Z,102170.23
2017-12-20T13:23:22.300Z,102171.17
2017-12-20T13:25:49.753Z,102171.79
2017-12-20T13:28:17.216Z,102172.27
2017-12-20T13:30:44.655Z,102168.77
2017-12-20T13:33:12.145Z,102170.41
2017-12-20T13:35:39.597Z,102173.39
2017-12-20T13:38:07.081Z,102174.81
2017-12-20T13:40:34.537Z,102175.89
2017-12-20T13:43:02.056Z,102171.97
2017-12-20T13:45:29.495Z,102171.30
2017-12-20T13:47:56.954Z,102173.49
2017-12-20T13:50:24.428Z,102164.66
2017-12-20T13:52:51.881Z,102165.42
2017-12-20T13:55:19.367Z,102165.87
2017-12-20T13:57:46.816Z,102157.05
2017-12-20T14:00:14.286Z,102165.81
2017-12-20T14:02:41.761Z,102166.22
2017-12-20T14:05:09.240Z,102167.97
2017-12-20T14:07:36.700Z,102165.56
2017-12-20T14:10:04.184Z,102167.30
2017-12-20T14:12:31.627Z,102163.43
2017-12-20T14:14:59.100Z,102156.84
2017-12-20T14:17:26.623Z,102160.31
2017-12-20T14:19:54.105Z,102164.25
2017-12-20T14:22:21.565Z,102165.95
2017-12-20T14:24:49.052Z,102171.26
2017-12-20T14:27:16.505Z,102169.06
2017-12-20T14:29:43.978Z,102180.75
2017-12-20T14:32:11.483Z,102180.72
2017-12-20T14:34:38.965Z,102182.47
2017-12-20T14:37:06.421Z,102187.31
2017-12-20T14:39:33.898Z,102184.55
2017-12-20T14:42:01.373Z,102189.48
2017-12-20T14:44:28.824Z,102184.98
2017-12-20T14:46:56.300Z,102192.63
2017-12-20T14:49:23.783Z,102191.27
2017-12-20T14:51:51.253Z,102193.51
2017-12-20T14:54:18.721Z,102191.65
2017-12-20T14:56:46.197Z,102194.80
2017-12-20T14:59:13.647Z,102195.25
2017-12-20T15:01:41.119Z,102201.92
2017-12-20T15:04:08.587Z,102203.23
2017-12-20T15:06:36.120Z,102201.84
2017-12-20T15:09:03.581Z,102204.52
2017-12-20T15:11:31.036Z,102197.50
2017-12-20T15:13:58.504Z,102201.93
2017-12-20T15:16:25.960Z,102198.84
2017-12-20T15:18:53.458Z,102200.78
2017-12-20T15:21:20.914Z,102203.72
2017-12-20T15:23:48.388Z,102209.02
2017-12-20T15:26:15.847Z,102202.53
2017-12-20T15:28:43.332Z,102199.48
2017-12-20T15:31:10.775Z,102197.48
2017-12-20T15:33:38.240Z,102213.67
2017-12-20T15:36:05.776Z,102220.17
2017-12-20T15:38:33.280Z,102220.24
2017-12-20T15:41:00.735Z,102224.56
2017-12-20T15:43:28.207Z,102216.99
2017-12-20T15:45:55.680Z,102217.78
2017-12-20T15:48:23.172Z,102215.17
2017-12-20T15:50:50.625Z,102212.41
2017-12-20T15:53:18.130Z,102211.53
2017-12-20T15:55:45.585Z,102206.98
2017-12-20T15:58:13.073Z,102219.52
2017-12-20T16:00:40.529Z,102219.27
2017-12-20T16:03:07.979Z,102216.01
2017-12-20T16:05:35.451Z,102218.00
2017-12-20T16:08:02.901Z,102222.59
2017-12-20T16:10:30.420Z,102216.31
2017-12-20T16:12:57.929Z,102224.69
2017-12-20T16:15:25.375Z,102228.83
2017-12-20T16:17:52.824Z,102230.46
2017-12-20T16:20:20.294Z,102235.78
2017-12-20T16:22:47.765Z,102237.41
2017-12-20T16:25:15.232Z,102239.36
2017-12-20T16:27:42.697Z,102242.98
2017-12-20T16:30:10.228Z,102246.25
2017-12-20T16:32:37.692Z,102245.70
2017-12-20T16:35:05.139Z,102247.37
2017-12-20T16:37:32.654Z,102245.81
2017-12-20T16:40:00.155Z,102238.92
2017-12-20T16:42:27.632Z,102247.60
2017-12-20T16:44:55.080Z,102245.39
2017-12-20T16:47:22.685Z,102241.31
2017-12-20T16:49:50.210Z,102244.46
2017-12-20T16:52:17.704Z,102239.02
2017-12-20T16:54:45.208Z,102238.53
2017-12-20T16:57:12.695Z,102232.50
2017-12-20T16:59:40.212Z,102236.20
2017-12-20T17:02:07.693Z,102235.84
2017-12-20T17:04:35.163Z,102237.72
2017-12-20T17:07:02.636Z,102237.84
2017-12-20T17:09:30.122Z,102244.14
2017-12-20T17:11:57.608Z,102243.29
2017-12-20T17:14:25.065Z,102246.89
2017-12-20T17:16:52.507Z,102247.83
2017-12-20T17:19:19.980Z,102241.73
2017-12-20T17:21:47.433Z,102241.72
2017-12-20T17:24:14.974Z,102246.47
2017-12-20T17:26:42.443Z,102245.27
2017-12-20T17:29:09.903Z,102243.03
2017-12-20T17:31:37.368Z,102246.02
2017-12-20T17:34:04.953Z,102249.55
2017-12-20T17:36:32.412Z,102248.28
2017-12-20T17:39:00.074Z,102255.46
2017-12-20T17:41:27.656Z,102254.95
2017-12-20T17:43:55.082Z,102259.20
2017-12-20T17:46:22.593Z,102262.31
2017-12-20T17:48:51.288Z,102260.96
2017-12-20T17:51:18.843Z,102258.30
2017-12-20T17:53:46.301Z,102253.45
2017-12-20T17:56:13.806Z,102241.92
2017-12-20T17:58:41.284Z,102254.89
2017-12-20T18:01:08.774Z,102247.82
2017-12-20T18:03:36.315Z,102250.91
2017-12-20T18:06:03.839Z,102259.78
2017-12-20T18:08:31.316Z,102256.90
2017-12-20T18:10:58.792Z,102253.20
2017-12-20T18:13:26.252Z,102255.04
2017-12-20T18:15:53.781Z,102257.36
2017-12-20T18:18:21.349Z,102261.92
2017-12-20T18:20:48.841Z,102267.56
2017-12-20T18:23:16.361Z,102269.77
2017-12-20T18:25:44.106Z,102273.82
2017-12-20T18:28:11.612Z,102277.89
2017-12-20T18:30:39.063Z,102278.06
2017-12-20T18:33:06.585Z,102277.15
2017-12-20T18:35:34.044Z,102263.84
2017-12-20T18:38:01.545Z,102269.26
2017-12-20T18:40:29.008Z,102272.15
2017-12-20T18:42:56.488Z,102271.75
2017-12-20T18:45:24.017Z,102280.86
2017-12-20T18:47:51.548Z,102280.14
2017-12-20T18:50:19.043Z,102275.22
2017-12-20T18:52:46.652Z,102277.52
2017-12-20T18:55:14.527Z,102275.36
2017-12-20T18:57:41.988Z,102267.99
2017-12-20T19:00:09.477Z,102269.61
2017-12-20T19:02:36.992Z,102271.70
2017-12-20T19:05:04.485Z,102275.84
2017-12-20T19:07:31.989Z,102270.95
2017-12-20T19:09:59.492Z,102263.59
2017-12-20T19:12:26.960Z,102275.02
2017-12-20T19:14:54.450Z,102274.58
2017-12-20T19:17:21.975Z,102274.92
2017-12-20T19:19:49.474Z,102279.86
2017-12-20T19:22:16.939Z,102279.12
2017-12-20T19:24:44.446Z,102280.41
2017-12-20T19:27:11.923Z,102279.55
2017-12-20T19:29:39.375Z,102283.81
2017-12-20T19:32:06.865Z,102274.70
2017-12-20T19:34:34.332Z,102273.27
2017-12-20T19:37:01.804Z,102272.92
2017-12-20T19:39:29.255Z,102275.56
2017-12-20T19:41:56.779Z,102275.93
2017-12-20T19:44:24.227Z,102269.82
2017-12-20T19:46:51.832Z,102275.55
2017-12-20T19:49:19.307Z,102269.12
2017-12-20T19:51:50.765Z,102265.27
2017-12-20T19:54:30.286Z,102261.69
2017-12-20T19:57:05.445Z,102257.75
2017-12-20T19:59:34.983Z,102252.77
2017-12-20T20:02:04.623Z,102250.11
2017-12-20T20:04:36.565Z,102245.45
2017-12-20T20:07:07.663Z,102251.55
2017-12-20T20:09:43.448Z,102251.17
2017-12-20T20:12:17.239Z,102252.95
2017-12-20T20:14:47.592Z,102256.30
2017-12-20T20:17:15.104Z,102253.80
2017-12-20T20:19:45.731Z,102255.64
2017-12-20T20:22:16.292Z,102254.45
2017-12-20T20:24:44.274Z,102264.73
2017-12-20T20:27:11.735Z,102261.20
2017-12-20T20:29:39.228Z,102264.67
2017-12-20T20:32:06.689Z,102269.55
2017-12-20T20:34:34.267Z,102268.23
2017-12-20T20:37:01.726Z,102267.84
2017-12-20T20:39:29.231Z,102269.26
2017-12-20T20:41:56.688Z,102271.45
2017-12-20T20:44:24.173Z,102272.74
2017-12-20T20:46:51.640Z,102260.67
2017-12-20T20:49:19.164Z,102262.84
2017-12-20T20:51:46.749Z,102261.41
2017-12-20T20:54:14.209Z,102269.02
2017-12-20T20:56:41.688Z,102269.58
2017-12-20T20:59:09.170Z,102275.81
2017-12-20T21:01:36.660Z,102272.62
2017-12-20T21:04:06.984Z,102271.32
2017-12-20T21:06:43.292Z,102285.52
2017-12-20T21:09:16.687Z,102285.59
2017-12-20T21:11:50.970Z,102278.05
2017-12-20T21:14:18.681Z,102281.57
2017-12-20T21:16:46.152Z,102289.30
2017-12-20T21:19:16.305Z,102281.71
2017-12-20T21:21:43.896Z,102287.05
2017-12-20T21:24:11.363Z,102287.58
2017-12-20T21:26:39.064Z,102276.84
2017-12-20T21:29:06.524Z,102281.88
2017-12-20T21:31:33.992Z,102278.27
2017-12-20T21:34:01.443Z,102278.98
2017-12-20T21:36:29.935Z,102286.53
2017-12-20T21:38:57.394Z,102278.91
2017-12-20T21:41:24.869Z,102276.97
2017-12-20T21:43:52.327Z,102277.39
2017-12-20T21:46:19.852Z,102280.42
2017-12-20T21:48:47.332Z,102279.34
2017-12-20T21:51:14.933Z,102281.50
2017-12-20T21:53:42.504Z,102276.09
2017-12-20T21:56:10.233Z,102281.91
2017-12-20T21:58:37.721Z,102287.36
2017-12-20T22:01:05.186Z,102285.23
2017-12-20T22:03:32.669Z,102290.09
2017-12-20T22:06:00.151Z,102286.47
2017-12-20T22:08:27.619Z,102280.65
2017-12-20T22:10:55.078Z,102281.81
2017-12-20T22:13:22.683Z,102283.31
2017-12-20T22:15:50.528Z,102284.30
2017-12-20T22:18:18.501Z,102284.73
2017-12-20T22:20:46.029Z,102296.50
2017-12-20T22:23:13.512Z,102292.66
2017-12-20T22:25:40.976Z,102293.18
2017-12-20T22:28:08.448Z,102286.89
2017-12-20T22:30:35.943Z,102292.62
2017-12-20T22:33:03.420Z,102297.21
2017-12-20T22:35:30.944Z,102298.07
2017-12-20T22:37:58.497Z,102299.94
2017-12-20T22:40:25.948Z,102310.48
2017-12-20T22:42:53.410Z,102309.88
2017-12-20T22:45:20.949Z,102326.48
2017-12-20T22:47:48.414Z,102327.03
2017-12-20T22:50:15.916Z,102325.67
2017-12-20T22:52:43.376Z,102324.00
2017-12-20T22:55:10.846Z,102321.34
2017-12-20T22:57:38.314Z,102321.77
2017-12-20T23:00:05.792Z,102317.61
2017-12-20T23:02:33.252Z,102310.05
2017-12-20T23:05:00.787Z,102311.11
2017-12-20T23:07:28.235Z,102304.76
2017-12-20T23:09:55.711Z,102302.53
2017-12-20T23:12:23.276Z,102301.37
2017-12-20T23:14:52.108Z,102307.25
2017-12-20T23:17:19.564Z,102310.80
2017-12-20T23:19:47.011Z,102312.77
2017-12-20T23:22:14.568Z,102308.17
2017-12-20T23:24:42.024Z,102297.75
2017-12-20T23:27:09.579Z,102305.33
2017-12-20T23:29:37.028Z,102311.05
2017-12-20T23:32:04.508Z,102304.56
2017-12-20T23:34:31.977Z,102296.40
2017-12-20T23:36:59.460Z,102303.79
2017-12-20T23:39:26.968Z,102304.35
2017-12-20T23:41:54.453Z,102305.13
2017-12-20T23:44:21.923Z,102310.86
2017-12-20T23:46:49.408Z,102305.01
2017-12-20T23:49:16.874Z,102310.83
2017-12-20T23:51:44.343Z,102314.89
2017-12-20T23:54:11.799Z,102310.08
2017-12-20T23:56:39.268Z,102311.61
2017-12-20T23:59:06.720Z,102315.05
